Terminal Aerodrome Forecast
Issued by NWS Omaha/Valley, NE

Home | Current Version | Previous Version | Text Only | Print | Product List | Glossary Off
Versions: 1 2 3 4 5 6 7 8 9 10 11 12 13 14 15 16 17 18 19 20 21 22 23 24

040
FTUS43 KOAX 281721
TAFOFK
TAF
KOFK 281721Z 2818/2918 31016G24KT P6SM SKC
     FM290000 31010KT P6SM SKC
     FM290200 29006KT P6SM SCT200
     FM291400 31010KT P6SM SCT200=

USA.gov is the U.S. government's official web portal to all federal, state and local government web resources and services.